createdAt,value
2022-10-29T00:00:29.402Z,149.80
2022-10-29T00:01:25.127Z,152.96
2022-10-29T00:02:20.382Z,154.23
2022-10-29T00:03:15.680Z,153.38
2022-10-29T00:04:11.614Z,154.51
2022-10-29T00:05:06.771Z,156.84
2022-10-29T00:06:02.560Z,158.63
2022-10-29T00:06:57.651Z,159.08
2022-10-29T00:07:53.372Z,160.61
2022-10-29T00:08:48.693Z,159.99
2022-10-29T00:09:43.911Z,160.61
2022-10-29T00:10:39.279Z,159.23
2022-10-29T00:11:35.606Z,158.48
2022-10-29T00:12:30.956Z,159.23
2022-10-29T00:13:26.789Z,160.15
2022-10-29T00:14:22.010Z,160.15
2022-10-29T00:15:17.404Z,162.96
2022-10-29T00:16:13.063Z,160.15
2022-10-29T00:17:08.514Z,159.69
2022-10-29T00:18:04.165Z,160.15
2022-10-29T00:18:59.315Z,159.84
2022-10-29T00:19:54.863Z,160.46
2022-10-29T00:20:50.488Z,159.99
2022-10-29T00:21:45.880Z,161.70
2022-10-29T00:22:41.060Z,162.65
2022-10-29T00:23:37.335Z,161.39
2022-10-29T00:24:32.561Z,161.23
2022-10-29T00:25:28.369Z,161.23
2022-10-29T00:26:23.580Z,159.54
2022-10-29T00:27:18.866Z,160.77
2022-10-29T00:28:14.596Z,161.54
2022-10-29T00:29:09.843Z,163.12
2022-10-29T00:30:05.005Z,164.73
2022-10-29T00:31:00.258Z,167.54
2022-10-29T00:31:56.077Z,168.39
2022-10-29T00:32:51.329Z,168.56
2022-10-29T00:33:46.587Z,169.42
2022-10-29T00:34:43.014Z,168.90
2022-10-29T00:35:38.238Z,169.93
2022-10-29T00:36:33.960Z,170.28
2022-10-29T00:37:29.428Z,170.80
2022-10-29T00:38:24.680Z,172.57
2022-10-29T00:39:20.340Z,172.39
2022-10-29T00:40:15.601Z,174.01
2022-10-29T00:41:11.373Z,174.19
2022-10-29T00:42:06.542Z,175.66
2022-10-29T00:43:01.942Z,175.84
2022-10-29T00:43:57.735Z,175.10
2022-10-29T00:44:52.993Z,174.19
2022-10-29T00:45:48.284Z,174.55
2022-10-29T00:46:44.620Z,172.39
2022-10-29T00:47:39.799Z,171.68
2022-10-29T00:48:34.998Z,171.68
2022-10-29T00:49:30.369Z,173.29
2022-10-29T00:50:25.566Z,173.65
2022-10-29T00:51:20.598Z,171.86
2022-10-29T00:52:15.691Z,173.47
2022-10-29T00:53:10.724Z,174.37
2022-10-29T00:54:06.164Z,174.74
2022-10-29T00:55:00.918Z,176.40
2022-10-29T00:55:56.026Z,178.86
2022-10-29T00:56:51.084Z,180.02
2022-10-29T00:57:46.197Z,180.21
2022-10-29T00:58:44.187Z,182.18
2022-10-29T00:59:39.341Z,181.98
2022-10-29T01:00:34.299Z,176.40
2022-10-29T01:01:29.435Z,178.29
2022-10-29T01:02:24.466Z,178.29
2022-10-29T01:03:19.411Z,178.29
2022-10-29T01:04:14.762Z,176.21
2022-10-29T01:05:09.513Z,176.40
2022-10-29T01:06:04.584Z,175.29
2022-10-29T01:06:59.671Z,177.34
2022-10-29T01:07:54.765Z,176.03
2022-10-29T01:08:49.845Z,176.40
2022-10-29T01:09:44.971Z,176.96
2022-10-29T01:10:40.041Z,178.86
2022-10-29T01:11:35.105Z,178.86
2022-10-29T01:12:30.099Z,179.82
2022-10-29T01:13:25.299Z,180.02
2022-10-29T01:14:20.336Z,179.82
2022-10-29T01:15:17.856Z,179.43
2022-10-29T01:16:12.383Z,180.60
2022-10-29T01:17:07.954Z,179.43
2022-10-29T01:18:03.139Z,180.21
2022-10-29T01:18:58.416Z,181.39
2022-10-29T01:19:53.808Z,183.58
2022-10-29T01:20:48.899Z,185.42
2022-10-29T01:21:44.349Z,185.83
2022-10-29T01:22:39.538Z,189.26
2022-10-29T01:23:34.723Z,189.15
2022-10-29T01:24:30.009Z,191.47
2022-10-29T01:25:25.252Z,191.92
2022-10-29T01:26:20.465Z,192.26
2022-10-29T01:27:15.678Z,190.58
2022-10-29T01:28:10.914Z,191.36
2022-10-29T01:29:06.247Z,190.25
2022-10-29T01:30:01.594Z,191.81
2022-10-29T01:30:56.736Z,190.91
2022-10-29T01:31:51.967Z,189.59
2022-10-29T01:32:47.205Z,189.15
2022-10-29T01:33:42.425Z,187.64
2022-10-29T01:34:37.774Z,187.96
2022-10-29T01:35:34.938Z,185.31
2022-10-29T01:36:30.175Z,186.47
2022-10-29T01:37:25.496Z,185.73
2022-10-29T01:38:20.750Z,186.26
2022-10-29T01:39:15.941Z,187.00
2022-10-29T01:40:11.193Z,188.18
2022-10-29T01:41:06.497Z,187.21
2022-10-29T01:42:01.290Z,185.62
2022-10-29T01:42:56.601Z,187.10
2022-10-29T01:43:51.499Z,187.43
2022-10-29T01:44:46.502Z,185.83
2022-10-29T01:45:41.598Z,184.89
2022-10-29T01:46:36.849Z,185.62
2022-10-29T01:47:32.356Z,185.94
2022-10-29T01:48:30.421Z,187.43
2022-10-29T01:49:23.515Z,185.52
2022-10-29T01:50:17.527Z,185.94
2022-10-29T01:51:12.590Z,186.79
2022-10-29T01:52:07.827Z,188.18
2022-10-29T01:53:02.763Z,188.83
2022-10-29T01:53:57.843Z,188.18
2022-10-29T01:54:52.918Z,186.57
2022-10-29T01:55:48.018Z,188.72
2022-10-29T01:56:43.025Z,189.48
2022-10-29T01:57:38.141Z,189.26
2022-10-29T01:58:33.256Z,189.37
2022-10-29T01:59:35.653Z,189.15
2022-10-29T02:00:24.260Z,187.53
2022-10-29T02:01:18.651Z,189.92
2022-10-29T02:02:13.926Z,188.72
2022-10-29T02:03:09.911Z,187.85
2022-10-29T02:04:04.988Z,187.43
2022-10-29T02:05:00.887Z,186.04
2022-10-29T02:05:55.984Z,187.43
2022-10-29T02:06:51.235Z,186.79
2022-10-29T02:07:47.193Z,186.15
2022-10-29T02:08:42.283Z,186.89
2022-10-29T02:09:37.627Z,186.15
2022-10-29T02:10:33.979Z,185.10
2022-10-29T02:11:29.354Z,187.00
2022-10-29T02:12:25.023Z,187.32
2022-10-29T02:13:20.412Z,189.70
2022-10-29T02:14:15.789Z,191.36
2022-10-29T02:15:11.462Z,192.60
2022-10-29T02:16:06.679Z,195.35
2022-10-29T02:17:02.475Z,197.23
2022-10-29T02:17:58.015Z,198.18
2022-10-29T02:18:53.115Z,198.30
2022-10-29T02:19:48.786Z,199.75
2022-10-29T02:20:44.016Z,200.73
2022-10-29T02:21:39.184Z,202.21
2022-10-29T02:22:35.765Z,200.97
2022-10-29T02:23:31.172Z,201.96
2022-10-29T02:24:26.811Z,202.58
2022-10-29T02:25:22.075Z,201.84
2022-10-29T02:26:17.376Z,202.84
2022-10-29T02:27:13.104Z,204.73
2022-10-29T02:28:08.421Z,205.76
2022-10-29T02:29:04.104Z,207.19
2022-10-29T02:29:59.340Z,205.89
2022-10-29T02:30:54.708Z,206.41
2022-10-29T02:31:50.475Z,205.24
2022-10-29T02:32:45.724Z,204.86
2022-10-29T02:33:41.259Z,206.67
2022-10-29T02:34:37.263Z,206.28
2022-10-29T02:35:32.487Z,205.76
2022-10-29T02:36:28.201Z,206.67
2022-10-29T02:37:23.395Z,206.93
2022-10-29T02:38:18.624Z,210.38
2022-10-29T02:39:14.583Z,208.77
2022-10-29T02:40:09.673Z,209.84
2022-10-29T02:41:05.591Z,209.84
2022-10-29T02:42:00.682Z,209.84
2022-10-29T02:42:56.243Z,211.19
2022-10-29T02:43:51.669Z,211.19
2022-10-29T02:44:46.971Z,209.84
2022-10-29T02:45:42.331Z,207.71
2022-10-29T02:46:38.650Z,208.11
2022-10-29T02:47:33.896Z,207.58
2022-10-29T02:48:29.677Z,207.85
2022-10-29T02:49:24.819Z,209.44
2022-10-29T02:50:20.339Z,209.71
2022-10-29T02:51:15.998Z,210.24
2022-10-29T02:52:11.236Z,209.97
2022-10-29T02:53:07.030Z,211.19
2022-10-29T02:54:02.158Z,209.17
2022-10-29T02:54:57.515Z,208.64
2022-10-29T02:55:53.285Z,209.04
2022-10-29T02:56:48.469Z,210.92
2022-10-29T02:57:43.714Z,211.19
2022-10-29T02:58:38.916Z,210.11
2022-10-29T02:59:34.694Z,209.71
2022-10-29T03:00:29.868Z,210.78
2022-10-29T03:01:25.679Z,210.11
2022-10-29T03:02:21.059Z,209.17
2022-10-29T03:03:16.321Z,208.64
2022-10-29T03:04:12.104Z,207.98
2022-10-29T03:05:07.428Z,206.54
2022-10-29T03:06:02.771Z,204.22
2022-10-29T03:06:58.770Z,203.46
2022-10-29T03:07:53.707Z,202.46
2022-10-29T03:08:48.958Z,202.33
2022-10-29T03:09:45.531Z,203.84
2022-10-29T03:10:40.913Z,204.48
2022-10-29T03:11:36.694Z,205.76
2022-10-29T03:12:31.910Z,206.02
2022-10-29T03:13:27.201Z,207.85
2022-10-29T03:14:22.957Z,208.51
2022-10-29T03:15:18.180Z,209.84
2022-10-29T03:16:13.387Z,208.90
2022-10-29T03:17:08.884Z,212.01
2022-10-29T03:18:03.979Z,212.42
2022-10-29T03:18:59.186Z,211.87
2022-10-29T03:19:54.527Z,210.24
2022-10-29T03:20:50.737Z,210.78
2022-10-29T03:21:45.957Z,213.11
2022-10-29T03:22:41.475Z,214.36
2022-10-29T03:23:37.012Z,213.80
2022-10-29T03:24:32.227Z,213.11
2022-10-29T03:25:27.481Z,213.25
2022-10-29T03:26:22.809Z,212.83
2022-10-29T03:27:17.864Z,209.57
2022-10-29T03:28:13.144Z,211.05
2022-10-29T03:29:07.953Z,211.33
2022-10-29T03:30:02.953Z,213.53
2022-10-29T03:30:58.070Z,212.01
2022-10-29T03:31:57.324Z,214.36
2022-10-29T03:32:52.548Z,215.49
2022-10-29T03:33:47.570Z,214.93
2022-10-29T03:34:42.533Z,218.21
2022-10-29T03:35:37.652Z,218.65
2022-10-29T03:36:32.754Z,220.71
2022-10-29T03:37:27.831Z,219.23
2022-10-29T03:38:22.943Z,220.12
2022-10-29T03:39:18.060Z,218.65
2022-10-29T03:40:13.138Z,219.97
2022-10-29T03:41:08.136Z,220.12
2022-10-29T03:42:03.196Z,219.23
2022-10-29T03:42:58.554Z,220.12
2022-10-29T03:43:53.273Z,218.79
2022-10-29T03:44:48.397Z,217.92
2022-10-29T03:45:43.797Z,216.63
2022-10-29T03:46:38.812Z,214.50
2022-10-29T03:47:33.867Z,213.11
2022-10-29T03:48:28.957Z,211.60
2022-10-29T03:49:24.018Z,212.70
2022-10-29T03:50:19.097Z,213.11
2022-10-29T03:51:14.137Z,213.67
2022-10-29T03:52:09.199Z,213.94
2022-10-29T03:53:04.304Z,213.11
2022-10-29T03:53:59.387Z,214.36
2022-10-29T03:54:54.481Z,213.67
2022-10-29T03:55:49.580Z,214.93
2022-10-29T03:56:44.669Z,214.22
2022-10-29T03:57:39.637Z,215.49
2022-10-29T03:58:34.898Z,215.49
2022-10-29T03:59:29.889Z,215.21
2022-10-29T04:00:26.555Z,217.20
2022-10-29T04:01:21.716Z,218.50
2022-10-29T04:02:16.756Z,218.94
2022-10-29T04:03:11.636Z,219.53
2022-10-29T04:04:06.723Z,218.50
2022-10-29T04:05:01.775Z,219.97
2022-10-29T04:05:56.822Z,220.12
2022-10-29T04:06:51.895Z,219.67
2022-10-29T04:07:46.944Z,219.67
2022-10-29T04:08:42.223Z,221.30
2022-10-29T04:09:37.049Z,221.90
2022-10-29T04:10:32.112Z,222.35
2022-10-29T04:11:27.607Z,222.05
2022-10-29T04:12:22.960Z,220.86
2022-10-29T04:13:18.215Z,221.45
2022-10-29T04:14:13.994Z,219.82
2022-10-29T04:15:09.231Z,220.26
2022-10-29T04:16:05.180Z,217.49
2022-10-29T04:17:00.230Z,217.92
2022-10-29T04:17:55.734Z,217.78
2022-10-29T04:18:51.230Z,216.34
2022-10-29T04:19:46.480Z,214.08
2022-10-29T04:21:31.300Z,212.97
2022-10-29T04:29:05.239Z,216.49
2022-10-29T04:29:59.436Z,218.50
2022-10-29T04:30:55.321Z,217.35
2022-10-29T04:31:50.567Z,219.67
2022-10-29T04:32:45.797Z,218.50
2022-10-29T04:33:41.565Z,218.50
2022-10-29T04:34:36.810Z,218.79
2022-10-29T04:35:32.711Z,218.36
2022-10-29T04:36:27.820Z,218.36
2022-10-29T04:37:23.073Z,218.50
2022-10-29T04:38:18.900Z,219.67
2022-10-29T04:39:15.458Z,220.71
2022-10-29T04:40:09.480Z,220.41
2022-10-29T04:41:04.525Z,217.35
2022-10-29T04:41:59.602Z,217.92
2022-10-29T04:42:54.937Z,217.92
2022-10-29T04:43:50.091Z,217.06
2022-10-29T04:44:44.918Z,217.06
2022-10-29T04:45:40.050Z,214.93
2022-10-29T04:46:35.118Z,215.77
2022-10-29T04:47:30.208Z,215.91
2022-10-29T04:48:25.452Z,213.39
2022-10-29T04:49:20.657Z,214.93
2022-10-29T04:50:15.616Z,214.36
2022-10-29T04:51:12.120Z,213.11
2022-10-29T04:52:07.202Z,212.83
2022-10-29T04:53:02.305Z,211.19
2022-10-29T04:53:57.572Z,209.57
2022-10-29T04:54:52.503Z,208.77
2022-10-29T04:55:47.581Z,207.32
2022-10-29T04:56:42.667Z,207.58
2022-10-29T04:57:37.682Z,205.63
2022-10-29T04:58:32.814Z,202.21
2022-10-29T04:59:27.951Z,197.82
2022-10-29T05:00:22.912Z,197.70
2022-10-29T05:01:18.291Z,199.26
2022-10-29T05:02:13.316Z,199.51
2022-10-29T05:03:08.520Z,201.34
2022-10-29T05:04:04.639Z,201.96
2022-10-29T05:04:59.750Z,202.71
2022-10-29T05:05:54.974Z,202.58
2022-10-29T05:06:51.369Z,202.21
2022-10-29T05:07:46.592Z,203.84
2022-10-29T05:08:42.376Z,203.09
2022-10-29T05:09:37.589Z,205.12
2022-10-29T05:10:32.793Z,206.28
2022-10-29T05:11:28.570Z,206.54
2022-10-29T05:12:23.867Z,207.85
2022-10-29T05:13:19.739Z,207.06
2022-10-29T05:14:14.868Z,207.06
2022-10-29T05:15:10.078Z,207.06
2022-10-29T05:16:05.330Z,207.19
2022-10-29T05:17:00.610Z,207.06
2022-10-29T05:17:56.363Z,207.06
2022-10-29T05:18:51.255Z,206.54
2022-10-29T05:19:46.667Z,206.02
2022-10-29T05:20:42.254Z,206.02
2022-10-29T05:21:38.477Z,204.35
2022-10-29T05:22:33.640Z,202.96
2022-10-29T05:23:28.764Z,202.58
2022-10-29T05:24:28.097Z,199.02
2022-10-29T05:25:23.396Z,199.63
2022-10-29T05:26:18.957Z,200.36
2022-10-29T05:27:14.229Z,200.11
2022-10-29T05:28:08.942Z,196.99
2022-10-29T05:29:04.013Z,197.11
2022-10-29T05:29:59.044Z,197.11
2022-10-29T05:30:54.063Z,198.78
2022-10-29T05:31:49.316Z,195.00
2022-10-29T05:32:44.317Z,196.16
2022-10-29T05:33:39.339Z,196.28
2022-10-29T05:34:34.735Z,196.63
2022-10-29T05:35:29.562Z,195.58
2022-10-29T05:36:24.570Z,194.42
2022-10-29T05:37:19.745Z,193.50
2022-10-29T05:38:14.791Z,194.19
2022-10-29T05:39:10.049Z,193.16
2022-10-29T05:40:05.115Z,191.92
2022-10-29T05:41:00.229Z,191.58
2022-10-29T05:41:55.265Z,191.92
2022-10-29T05:42:50.226Z,190.36
2022-10-29T05:43:45.234Z,189.37
2022-10-29T05:44:40.325Z,190.25
2022-10-29T05:45:35.428Z,190.03
2022-10-29T05:46:30.476Z,189.92
2022-10-29T05:47:25.588Z,190.25
2022-10-29T05:48:20.614Z,190.58
2022-10-29T05:49:18.730Z,191.36
2022-10-29T05:50:13.736Z,191.14
2022-10-29T05:51:08.775Z,191.25
2022-10-29T05:52:04.442Z,190.91
2022-10-29T05:52:59.044Z,190.14
2022-10-29T05:53:53.942Z,191.03
2022-10-29T05:54:49.297Z,191.03
2022-10-29T05:55:44.034Z,189.81
2022-10-29T05:56:39.105Z,185.21
2022-10-29T05:57:34.137Z,185.42
2022-10-29T05:58:29.319Z,186.04
2022-10-29T05:59:24.223Z,185.52
2022-10-29T06:00:19.229Z,186.26
2022-10-29T06:01:14.408Z,186.47
2022-10-29T06:02:09.804Z,186.04
2022-10-29T06:03:07.709Z,187.53
2022-10-29T06:04:02.749Z,187.00
2022-10-29T06:04:57.826Z,187.53
2022-10-29T06:05:53.746Z,187.21
2022-10-29T06:06:47.986Z,187.85
2022-10-29T06:07:43.445Z,188.07
2022-10-29T06:08:37.961Z,188.07
2022-10-29T06:09:33.042Z,189.15
2022-10-29T06:10:28.166Z,188.72
2022-10-29T06:11:23.499Z,186.47
2022-10-29T06:12:18.496Z,186.04
2022-10-29T06:13:13.951Z,186.24
2022-10-29T06:14:10.296Z,185.62
2022-10-29T06:15:05.723Z,184.80
2022-10-29T06:16:00.452Z,181.98
2022-10-29T06:16:56.457Z,179.05
2022-10-29T06:17:51.820Z,179.05
2022-10-29T06:18:47.620Z,177.72
2022-10-29T06:19:42.941Z,177.53
2022-10-29T06:20:38.455Z,173.47
2022-10-29T06:21:34.196Z,171.33
2022-10-29T06:22:29.611Z,171.68
2022-10-29T06:23:24.987Z,172.04
2022-10-29T06:24:21.521Z,173.11
2022-10-29T06:25:16.887Z,173.11
2022-10-29T06:26:12.768Z,173.29
2022-10-29T06:27:08.032Z,170.98
2022-10-29T06:28:03.418Z,172.39
2022-10-29T06:28:59.254Z,171.86
2022-10-29T06:29:54.805Z,173.47
2022-10-29T06:30:51.111Z,172.75
2022-10-29T06:31:45.722Z,175.10
2022-10-29T06:32:41.126Z,174.92
2022-10-29T06:33:37.384Z,173.47
2022-10-29T06:34:32.711Z,172.21
2022-10-29T06:35:28.323Z,173.29
2022-10-29T06:36:24.567Z,172.21
2022-10-29T06:37:19.867Z,174.55
2022-10-29T06:38:15.858Z,175.29
2022-10-29T06:39:11.298Z,176.21
2022-10-29T06:40:06.740Z,176.40
2022-10-29T06:41:02.469Z,176.40
2022-10-29T06:41:58.512Z,176.40
2022-10-29T06:42:53.763Z,176.59
2022-10-29T06:43:49.218Z,175.47
2022-10-29T06:44:44.487Z,176.59
2022-10-29T06:45:40.410Z,176.77
2022-10-29T06:46:35.730Z,176.77
2022-10-29T06:47:31.308Z,178.29
2022-10-29T06:48:27.423Z,177.90
2022-10-29T06:49:22.909Z,177.34
2022-10-29T06:50:18.749Z,177.72
2022-10-29T06:51:14.279Z,177.90
2022-10-29T06:52:09.707Z,177.53
2022-10-29T06:53:05.460Z,176.77
2022-10-29T06:54:00.884Z,175.10
2022-10-29T06:54:56.772Z,175.84
2022-10-29T06:55:52.217Z,176.03
2022-10-29T06:56:47.682Z,176.59
2022-10-29T06:57:43.440Z,177.53
2022-10-29T06:58:38.748Z,178.67
2022-10-29T06:59:34.530Z,180.02
2022-10-29T07:00:30.697Z,180.80
2022-10-29T07:01:27.762Z,182.38
2022-10-29T07:02:22.461Z,183.78
2022-10-29T07:03:17.598Z,183.99
2022-10-29T07:04:13.211Z,185.42
2022-10-29T07:05:08.989Z,185.94
2022-10-29T07:06:04.507Z,187.64
2022-10-29T07:06:59.962Z,188.94
2022-10-29T07:07:56.058Z,189.59
2022-10-29T07:08:51.328Z,193.16
2022-10-29T07:09:46.920Z,194.31
2022-10-29T07:10:43.224Z,195.23
2022-10-29T07:11:38.585Z,196.75
2022-10-29T07:12:34.477Z,196.87
2022-10-29T07:13:29.971Z,198.06
2022-10-29T07:14:25.484Z,198.90
2022-10-29T07:15:25.635Z,198.66
2022-10-29T07:16:17.398Z,198.66
2022-10-29T07:17:13.165Z,198.30
2022-10-29T07:18:09.747Z,198.18
2022-10-29T07:19:05.278Z,199.38
2022-10-29T07:20:00.803Z,199.38
2022-10-29T07:20:56.184Z,197.94
2022-10-29T07:21:52.968Z,196.99
2022-10-29T07:22:48.288Z,196.28
2022-10-29T07:23:43.803Z,196.52
2022-10-29T07:24:40.412Z,194.19
2022-10-29T07:25:35.900Z,191.25
2022-10-29T07:26:31.425Z,189.48
2022-10-29T07:27:26.970Z,188.29
2022-10-29T07:28:22.072Z,185.83
2022-10-29T07:29:17.053Z,184.99
2022-10-29T07:30:12.091Z,183.99
2022-10-29T07:31:07.619Z,181.78
2022-10-29T07:32:02.626Z,177.90
2022-10-29T07:32:57.373Z,175.66
2022-10-29T07:33:52.332Z,173.47
2022-10-29T07:34:47.389Z,170.63
2022-10-29T07:35:42.435Z,167.88
2022-10-29T07:36:37.546Z,166.54
2022-10-29T07:37:32.620Z,163.12
2022-10-29T07:38:27.760Z,160.61
2022-10-29T07:39:23.750Z,158.18
2022-10-29T07:40:17.955Z,154.80
2022-10-29T07:41:12.980Z,151.84
2022-10-29T07:42:08.002Z,149.53
2022-10-29T07:43:03.253Z,146.64
2022-10-29T07:43:58.337Z,145.49
2022-10-29T07:44:53.360Z,142.02
2022-10-29T07:45:48.617Z,140.59
2022-10-29T07:46:44.022Z,141.18
2022-10-29T07:47:38.765Z,139.53
2022-10-29T07:48:33.716Z,139.06
2022-10-29T07:49:32.839Z,137.46
2022-10-29T07:50:26.871Z,136.11
2022-10-29T07:51:22.108Z,134.58
2022-10-29T07:52:16.997Z,132.65
2022-10-29T07:53:12.573Z,132.23
2022-10-29T07:54:12.247Z,132.65
2022-10-29T07:55:04.112Z,130.88
2022-10-29T07:55:58.059Z,130.17
2022-10-29T07:56:53.080Z,129.66
2022-10-29T07:57:48.240Z,130.78
2022-10-29T07:58:43.267Z,129.86
2022-10-29T07:59:38.430Z,127.00
2022-10-29T08:00:33.515Z,126.90
2022-10-29T08:01:28.652Z,126.52
2022-10-29T08:02:23.605Z,125.85
2022-10-29T08:03:18.654Z,124.53
2022-10-29T08:04:13.823Z,122.88
2022-10-29T08:05:09.621Z,121.90
2022-10-29T08:06:05.120Z,121.10
2022-10-29T08:07:00.394Z,120.57
2022-10-29T08:07:55.925Z,121.36
2022-10-29T08:08:51.093Z,121.72
2022-10-29T08:09:46.655Z,119.62
2022-10-29T08:10:44.067Z,118.52
2022-10-29T08:11:37.596Z,117.68
2022-10-29T08:12:37.132Z,114.93
2022-10-29T08:13:32.140Z,114.69
2022-10-29T08:14:27.589Z,112.83
2022-10-29T08:15:23.244Z,114.46
2022-10-29T08:16:18.723Z,113.68
2022-10-29T08:17:14.151Z,114.38
2022-10-29T08:18:09.627Z,116.70
2022-10-29T08:19:07.061Z,117.11
2022-10-29T08:20:00.567Z,115.81
2022-10-29T08:20:56.216Z,116.21
2022-10-29T08:21:52.390Z,116.70
2022-10-29T08:22:47.956Z,117.60
2022-10-29T08:23:43.264Z,117.85
2022-10-29T08:24:38.706Z,116.94
2022-10-29T08:25:34.992Z,115.25
2022-10-29T08:26:30.872Z,113.21
2022-10-29T08:27:24.822Z,111.62
2022-10-29T08:28:21.812Z,111.47
2022-10-29T08:29:15.120Z,108.93
2022-10-29T08:30:10.535Z,108.22
2022-10-29T08:31:06.342Z,109.71
2022-10-29T08:32:01.579Z,110.37
2022-10-29T08:32:57.519Z,112.45
2022-10-29T08:33:53.191Z,111.55
2022-10-29T08:34:48.094Z,111.47
2022-10-29T08:35:43.170Z,111.62
2022-10-29T08:36:39.259Z,112.07
2022-10-29T08:37:33.219Z,110.73
2022-10-29T08:38:28.285Z,111.62
2022-10-29T08:39:23.391Z,111.77
2022-10-29T08:40:18.497Z,110.88
2022-10-29T08:41:13.600Z,111.55
2022-10-29T08:42:08.683Z,111.25
2022-10-29T08:43:03.745Z,111.85
2022-10-29T08:43:58.871Z,113.99
2022-10-29T08:44:54.734Z,112.45
2022-10-29T08:45:49.808Z,110.66
2022-10-29T08:46:44.917Z,109.14
2022-10-29T08:47:40.013Z,106.29
2022-10-29T08:48:36.094Z,103.58
2022-10-29T08:49:31.103Z,104.30
2022-10-29T08:50:26.994Z,107.11
2022-10-29T08:51:22.217Z,110.22
2022-10-29T08:52:17.893Z,110.00
2022-10-29T08:53:22.873Z,110.81
2022-10-29T08:54:29.682Z,111.62
2022-10-29T08:55:05.036Z,111.55
2022-10-29T08:55:59.594Z,111.25
2022-10-29T08:56:55.231Z,108.22
2022-10-29T08:57:50.694Z,105.22
2022-10-29T08:58:46.018Z,105.35
2022-10-29T08:59:41.443Z,105.62
2022-10-29T09:00:36.955Z,104.56
2022-10-29T09:01:32.078Z,105.22
2022-10-29T09:02:26.974Z,107.80
2022-10-29T09:03:22.014Z,108.36
2022-10-29T09:04:17.089Z,108.43
2022-10-29T09:05:12.171Z,104.89
2022-10-29T09:06:07.283Z,104.56
2022-10-29T09:07:02.297Z,105.89
2022-10-29T09:08:02.179Z,107.18
2022-10-29T09:08:54.682Z,110.00
2022-10-29T09:09:49.796Z,111.10
2022-10-29T09:10:44.875Z,113.44
2022-10-29T09:11:40.071Z,112.45
2022-10-29T09:12:35.083Z,114.30
2022-10-29T09:13:30.166Z,116.05
2022-10-29T09:14:25.283Z,118.35
2022-10-29T09:15:20.805Z,118.43
2022-10-29T09:16:16.153Z,123.43
2022-10-29T09:17:14.644Z,120.66
2022-10-29T09:18:07.768Z,117.02
2022-10-29T09:19:03.261Z,115.72
2022-10-29T09:19:58.220Z,112.22
2022-10-29T09:20:53.400Z,109.50
2022-10-29T09:21:48.899Z,112.75
2022-10-29T09:22:44.474Z,122.79
2022-10-29T09:23:39.834Z,125.00
2022-10-29T09:24:35.371Z,127.68
2022-10-29T09:25:30.708Z,126.61
2022-10-29T09:26:25.790Z,124.25
2022-10-29T09:27:20.866Z,124.16
2022-10-29T09:28:16.103Z,118.52
2022-10-29T09:29:11.446Z,119.37
2022-10-29T09:30:06.218Z,122.70
2022-10-29T09:31:05.795Z,134.14
2022-10-29T09:32:00.745Z,136.00
2022-10-29T09:32:56.162Z,139.29
2022-10-29T09:33:51.128Z,138.95
2022-10-29T09:34:46.030Z,136.11
2022-10-29T09:35:41.113Z,137.35
2022-10-29T09:36:36.215Z,139.18
2022-10-29T09:37:31.331Z,141.90
2022-10-29T09:38:26.424Z,140.23
2022-10-29T09:39:24.455Z,138.83
2022-10-29T09:40:16.754Z,130.99
2022-10-29T09:41:12.460Z,127.48
2022-10-29T09:42:06.704Z,125.28
2022-10-29T09:43:01.685Z,126.90
2022-10-29T09:43:56.783Z,120.40
2022-10-29T09:44:51.855Z,111.70
2022-10-29T09:45:48.406Z,105.89
2022-10-29T09:46:46.205Z,100.65
2022-10-29T09:47:41.250Z,96.24
2022-10-29T09:48:36.321Z,97.13
2022-10-29T09:49:31.338Z,98.86
2022-10-29T09:50:26.884Z,95.54
2022-10-29T09:51:22.282Z,100.17
2022-10-29T09:52:17.802Z,105.89
2022-10-29T09:53:14.494Z,110.51
2022-10-29T09:54:09.753Z,118.69
2022-10-29T09:55:04.723Z,121.28
2022-10-29T09:56:00.192Z,122.97
2022-10-29T09:56:56.062Z,114.22
2022-10-29T09:57:51.224Z,115.25
2022-10-29T09:58:46.230Z,110.08
2022-10-29T09:59:41.189Z,116.29
2022-10-29T10:00:36.282Z,115.97
2022-10-29T10:01:31.370Z,109.64
2022-10-29T10:02:26.588Z,106.02
2022-10-29T10:03:21.604Z,106.36
2022-10-29T10:04:16.556Z,119.88
2022-10-29T10:05:11.624Z,127.19
2022-10-29T10:06:07.127Z,134.36
2022-10-29T10:07:01.705Z,133.18
2022-10-29T10:07:56.908Z,131.60
2022-10-29T10:08:52.208Z,119.03
2022-10-29T10:09:47.592Z,124.35
2022-10-29T10:10:43.403Z,124.35
2022-10-29T10:11:38.726Z,130.37
2022-10-29T10:12:34.053Z,141.78
2022-10-29T10:13:29.348Z,150.34
2022-10-29T10:14:24.152Z,152.96
2022-10-29T10:15:19.220Z,151.71
2022-10-29T10:16:14.506Z,155.96
2022-10-29T10:17:09.447Z,156.54
2022-10-29T10:18:04.514Z,160.92
2022-10-29T10:18:59.633Z,151.02
2022-10-29T10:19:54.700Z,142.63
2022-10-29T10:20:49.747Z,144.86
2022-10-29T10:21:44.839Z,148.60
2022-10-29T10:22:39.900Z,147.29
2022-10-29T10:23:34.955Z,150.47
2022-10-29T10:24:30.017Z,150.74
2022-10-29T10:25:25.232Z,159.38
2022-10-29T10:26:20.349Z,160.46
2022-10-29T10:27:15.428Z,153.38
2022-10-29T10:28:10.582Z,150.07
2022-10-29T10:29:05.932Z,154.51
2022-10-29T10:30:01.111Z,150.88
2022-10-29T10:30:56.346Z,142.75
2022-10-29T10:31:53.792Z,141.06
2022-10-29T10:32:49.214Z,135.23
2022-10-29T10:33:44.281Z,124.53
2022-10-29T10:34:39.727Z,129.76
2022-10-29T10:35:35.235Z,144.23
2022-10-29T10:36:30.283Z,154.51
2022-10-29T10:37:25.355Z,157.28
2022-10-29T10:38:20.398Z,159.99
2022-10-29T10:39:15.428Z,169.59
2022-10-29T10:40:10.453Z,173.29
2022-10-29T10:41:05.544Z,169.93
2022-10-29T10:42:00.531Z,175.84
2022-10-29T10:42:55.621Z,177.72
2022-10-29T10:43:50.824Z,183.58
2022-10-29T10:44:45.671Z,185.01
2022-10-29T10:45:40.763Z,166.88
2022-10-29T10:46:35.873Z,150.34
2022-10-29T10:47:31.314Z,143.61
2022-10-29T10:48:30.956Z,138.83
2022-10-29T10:49:23.205Z,143.12
2022-10-29T10:50:17.329Z,151.43
2022-10-29T10:51:12.945Z,151.29
2022-10-29T10:52:08.236Z,152.12
2022-10-29T10:53:03.695Z,143.36
2022-10-29T10:53:59.215Z,133.18
2022-10-29T10:54:54.776Z,133.71
2022-10-29T10:55:50.394Z,140.11
2022-10-29T10:56:45.894Z,145.36
2022-10-29T10:57:41.372Z,150.74
2022-10-29T10:58:36.878Z,154.94
2022-10-29T10:59:32.392Z,161.08
2022-10-29T11:00:28.286Z,154.09
2022-10-29T11:01:24.152Z,155.38
2022-10-29T11:02:22.452Z,155.23
2022-10-29T11:03:17.616Z,163.60
2022-10-29T11:04:13.069Z,173.83
2022-10-29T11:05:08.573Z,181.39
2022-10-29T11:06:04.104Z,185.20
2022-10-29T11:06:59.825Z,185.21
2022-10-29T11:07:55.297Z,183.99
2022-10-29T11:08:50.447Z,176.77
2022-10-29T11:09:46.336Z,169.42
2022-10-29T11:10:41.443Z,171.33
2022-10-29T11:11:37.027Z,170.98
2022-10-29T11:12:32.347Z,168.56
2022-10-29T11:13:27.847Z,178.86
2022-10-29T11:14:23.330Z,180.80
2022-10-29T11:15:18.822Z,185.62
2022-10-29T11:16:13.938Z,184.79
2022-10-29T11:17:09.035Z,189.70
2022-10-29T11:18:04.882Z,188.72
2022-10-29T11:18:59.209Z,190.14
2022-10-29T11:19:54.284Z,185.83
2022-10-29T11:20:49.642Z,182.58
2022-10-29T11:21:44.415Z,180.40
2022-10-29T11:22:39.492Z,182.58
2022-10-29T11:23:34.596Z,173.83
2022-10-29T11:24:29.706Z,169.07
2022-10-29T11:25:26.154Z,173.47
2022-10-29T11:26:21.170Z,177.90
2022-10-29T11:27:16.195Z,176.40
2022-10-29T11:28:11.526Z,179.43
2022-10-29T11:29:07.475Z,187.96
2022-10-29T11:30:03.193Z,194.77
2022-10-29T11:32:25.114Z,218.07
2022-10-29T11:33:20.290Z,193.39
2022-10-29T11:34:15.736Z,193.85
2022-10-29T11:35:11.443Z,191.58
2022-10-29T11:36:06.591Z,186.26
2022-10-29T11:37:01.999Z,182.98
2022-10-29T11:37:57.746Z,179.24
2022-10-29T11:38:52.836Z,186.24
2022-10-29T11:39:48.380Z,185.10